sensor_id;sensor_type;location;lat;lon;timestamp;P1;durP1;ratioP1;P2;durP2;ratioP2
37831;SDS011;23671;38.090;-122.570;2023-04-07T00:00:56;1.27;;;0.50;;
37831;SDS011;23671;38.090;-122.570;2023-04-07T00:03:22;0.63;;;0.45;;
37831;SDS011;23671;38.090;-122.570;2023-04-07T00:05:50;0.98;;;0.50;;
37831;SDS011;23671;38.090;-122.570;2023-04-07T00:08:17;0.98;;;0.57;;
37831;SDS011;23671;38.090;-122.570;2023-04-07T00:10:44;2.08;;;0.63;;
37831;SDS011;23671;38.090;-122.570;2023-04-07T00:13:13;1.45;;;0.43;;
37831;SDS011;23671;38.090;-122.570;2023-04-07T00:15:40;0.57;;;0.40;;
37831;SDS011;23671;38.090;-122.570;2023-04-07T00:18:07;2.65;;;0.60;;
37831;SDS011;23671;38.090;-122.570;2023-04-07T00:20:35;1.20;;;0.70;;
37831;SDS011;23671;38.090;-122.570;2023-04-07T00:23:02;0.98;;;0.50;;
37831;SDS011;23671;38.090;-122.570;2023-04-07T00:25:28;0.77;;;0.57;;
37831;SDS011;23671;38.090;-122.570;2023-04-07T00:27:55;3.55;;;0.73;;
37831;SDS011;23671;38.090;-122.570;2023-04-07T00:30:22;0.88;;;0.22;;
37831;SDS011;23671;38.090;-122.570;2023-04-07T00:32:50;0.70;;;0.40;;
37831;SDS011;23671;38.090;-122.570;2023-04-07T00:35:17;0.65;;;0.50;;
37831;SDS011;23671;38.090;-122.570;2023-04-07T00:37:44;2.22;;;0.70;;
37831;SDS011;23671;38.090;-122.570;2023-04-07T00:40:11;1.65;;;0.90;;
37831;SDS011;23671;38.090;-122.570;2023-04-07T00:42:38;1.80;;;0.60;;
37831;SDS011;23671;38.090;-122.570;2023-04-07T00:45:05;0.73;;;0.30;;
37831;SDS011;23671;38.090;-122.570;2023-04-07T00:47:32;0.43;;;0.40;;
37831;SDS011;23671;38.090;-122.570;2023-04-07T00:49:59;1.60;;;0.50;;
37831;SDS011;23671;38.090;-122.570;2023-04-07T00:52:30;0.82;;;0.73;;
37831;SDS011;23671;38.090;-122.570;2023-04-07T00:55:01;1.40;;;0.50;;
37831;SDS011;23671;38.090;-122.570;2023-04-07T00:57:28;1.25;;;0.40;;
37831;SDS011;23671;38.090;-122.570;2023-04-07T00:59:55;1.55;;;0.35;;
37831;SDS011;23671;38.090;-122.570;2023-04-07T01:15:55;0.50;;;0.50;;
37831;SDS011;23671;38.090;-122.570;2023-04-07T01:18:26;0.98;;;0.40;;
37831;SDS011;23671;38.090;-122.570;2023-04-07T01:21:01;1.20;;;0.60;;
37831;SDS011;23671;38.090;-122.570;2023-04-07T01:26:23;1.45;;;0.52;;
37831;SDS011;23671;38.090;-122.570;2023-04-07T01:29:39;0.88;;;0.32;;
37831;SDS011;23671;38.090;-122.570;2023-04-07T01:31:49;2.85;;;0.70;;
37831;SDS011;23671;38.090;-122.570;2023-04-07T01:34:19;0.95;;;0.40;;
37831;SDS011;23671;38.090;-122.570;2023-04-07T01:36:48;1.50;;;0.50;;
37831;SDS011;23671;38.090;-122.570;2023-04-07T01:39:16;0.83;;;0.47;;
37831;SDS011;23671;38.090;-122.570;2023-04-07T01:41:44;0.70;;;0.30;;
37831;SDS011;23671;38.090;-122.570;2023-04-07T01:44:12;1.30;;;0.60;;
37831;SDS011;23671;38.090;-122.570;2023-04-07T01:46:40;0.47;;;0.30;;
37831;SDS011;23671;38.090;-122.570;2023-04-07T01:49:07;0.52;;;0.32;;
37831;SDS011;23671;38.090;-122.570;2023-04-07T01:51:36;2.00;;;0.50;;
37831;SDS011;23671;38.090;-122.570;2023-04-07T01:54:04;0.83;;;0.50;;
37831;SDS011;23671;38.090;-122.570;2023-04-07T01:56:32;0.85;;;0.40;;
37831;SDS011;23671;38.090;-122.570;2023-04-07T01:58:59;0.70;;;0.47;;
37831;SDS011;23671;38.090;-122.570;2023-04-07T02:01:26;1.13;;;0.50;;
37831;SDS011;23671;38.090;-122.570;2023-04-07T02:03:55;2.03;;;0.60;;
37831;SDS011;23671;38.090;-122.570;2023-04-07T02:06:38;1.60;;;0.68;;
37831;SDS011;23671;38.090;-122.570;2023-04-07T02:09:29;2.10;;;0.55;;
37831;SDS011;23671;38.090;-122.570;2023-04-07T02:11:59;1.38;;;0.77;;
37831;SDS011;23671;38.090;-122.570;2023-04-07T02:14:28;3.85;;;0.90;;
37831;SDS011;23671;38.090;-122.570;2023-04-07T02:16:56;1.10;;;0.70;;
37831;SDS011;23671;38.090;-122.570;2023-04-07T02:19:26;1.42;;;0.98;;
37831;SDS011;23671;38.090;-122.570;2023-04-07T02:21:54;2.63;;;0.80;;
37831;SDS011;23671;38.090;-122.570;2023-04-07T02:24:22;1.80;;;0.85;;
37831;SDS011;23671;38.090;-122.570;2023-04-07T02:26:49;2.28;;;0.60;;
37831;SDS011;23671;38.090;-122.570;2023-04-07T02:29:16;1.65;;;1.00;;
37831;SDS011;23671;38.090;-122.570;2023-04-07T02:31:43;0.60;;;0.60;;
37831;SDS011;23671;38.090;-122.570;2023-04-07T02:34:10;0.82;;;0.70;;
37831;SDS011;23671;38.090;-122.570;2023-04-07T02:36:37;2.50;;;0.70;;
37831;SDS011;23671;38.090;-122.570;2023-04-07T02:39:07;1.45;;;0.60;;
37831;SDS011;23671;38.090;-122.570;2023-04-07T02:41:38;1.88;;;0.60;;
37831;SDS011;23671;38.090;-122.570;2023-04-07T02:44:05;2.13;;;0.80;;
37831;SDS011;23671;38.090;-122.570;2023-04-07T02:46:32;2.17;;;0.90;;
37831;SDS011;23671;38.090;-122.570;2023-04-07T02:48:59;1.58;;;0.93;;
37831;SDS011;23671;38.090;-122.570;2023-04-07T02:51:27;0.95;;;0.60;;
37831;SDS011;23671;38.090;-122.570;2023-04-07T02:53:54;2.35;;;0.90;;
37831;SDS011;23671;38.090;-122.570;2023-04-07T02:56:21;2.38;;;0.60;;
37831;SDS011;23671;38.090;-122.570;2023-04-07T02:58:48;0.82;;;0.68;;
37831;SDS011;23671;38.090;-122.570;2023-04-07T03:01:15;2.53;;;0.98;;
37831;SDS011;23671;38.090;-122.570;2023-04-07T03:03:42;3.58;;;1.38;;
37831;SDS011;23671;38.090;-122.570;2023-04-07T03:06:09;2.17;;;0.85;;
37831;SDS011;23671;38.090;-122.570;2023-04-07T03:08:36;1.58;;;0.77;;
37831;SDS011;23671;38.090;-122.570;2023-04-07T03:11:03;3.25;;;0.95;;
37831;SDS011;23671;38.090;-122.570;2023-04-07T03:13:30;3.22;;;0.77;;
37831;SDS011;23671;38.090;-122.570;2023-04-07T03:15:57;1.30;;;0.70;;
37831;SDS011;23671;38.090;-122.570;2023-04-07T03:18:24;0.50;;;0.50;;
37831;SDS011;23671;38.090;-122.570;2023-04-07T03:20:51;2.95;;;0.80;;
37831;SDS011;23671;38.090;-122.570;2023-04-07T03:23:19;1.02;;;0.70;;
37831;SDS011;23671;38.090;-122.570;2023-04-07T03:25:48;2.27;;;0.90;;
37831;SDS011;23671;38.090;-122.570;2023-04-07T03:28:15;4.10;;;1.10;;
37831;SDS011;23671;38.090;-122.570;2023-04-07T03:30:42;1.33;;;0.60;;
37831;SDS011;23671;38.090;-122.570;2023-04-07T03:33:09;4.15;;;1.05;;
37831;SDS011;23671;38.090;-122.570;2023-04-07T03:35:36;3.15;;;0.85;;
37831;SDS011;23671;38.090;-122.570;2023-04-07T03:38:03;2.67;;;0.70;;
37831;SDS011;23671;38.090;-122.570;2023-04-07T03:40:30;2.92;;;0.98;;
37831;SDS011;23671;38.090;-122.570;2023-04-07T03:42:57;1.83;;;1.00;;
37831;SDS011;23671;38.090;-122.570;2023-04-07T03:45:24;1.48;;;0.63;;
37831;SDS011;23671;38.090;-122.570;2023-04-07T03:47:51;1.30;;;0.70;;
37831;SDS011;23671;38.090;-122.570;2023-04-07T03:50:18;1.80;;;0.70;;
37831;SDS011;23671;38.090;-122.570;2023-04-07T03:52:45;1.45;;;0.70;;
37831;SDS011;23671;38.090;-122.570;2023-04-07T03:55:12;2.75;;;0.88;;
37831;SDS011;23671;38.090;-122.570;2023-04-07T03:57:40;3.00;;;0.90;;
37831;SDS011;23671;38.090;-122.570;2023-04-07T04:00:07;2.50;;;0.93;;
37831;SDS011;23671;38.090;-122.570;2023-04-07T04:02:34;3.28;;;0.68;;
37831;SDS011;23671;38.090;-122.570;2023-04-07T04:05:01;3.70;;;0.90;;
37831;SDS011;23671;38.090;-122.570;2023-04-07T04:07:28;0.60;;;0.50;;
37831;SDS011;23671;38.090;-122.570;2023-04-07T04:09:56;2.33;;;0.77;;
37831;SDS011;23671;38.090;-122.570;2023-04-07T04:12:23;1.88;;;0.90;;
37831;SDS011;23671;38.090;-122.570;2023-04-07T04:14:50;0.80;;;0.68;;
37831;SDS011;23671;38.090;-122.570;2023-04-07T04:17:17;2.55;;;0.90;;
37831;SDS011;23671;38.090;-122.570;2023-04-07T04:19:44;2.13;;;0.50;;
37831;SDS011;23671;38.090;-122.570;2023-04-07T04:22:11;1.67;;;0.65;;
37831;SDS011;23671;38.090;-122.570;2023-04-07T04:24:38;3.40;;;0.80;;
37831;SDS011;23671;38.090;-122.570;2023-04-07T04:27:06;1.65;;;0.60;;
37831;SDS011;23671;38.090;-122.570;2023-04-07T04:29:33;1.15;;;0.60;;
37831;SDS011;23671;38.090;-122.570;2023-04-07T04:32:00;1.83;;;0.55;;
37831;SDS011;23671;38.090;-122.570;2023-04-07T04:34:27;1.77;;;1.13;;
37831;SDS011;23671;38.090;-122.570;2023-04-07T04:36:54;1.67;;;0.70;;
37831;SDS011;23671;38.090;-122.570;2023-04-07T04:39:21;0.93;;;0.57;;
37831;SDS011;23671;38.090;-122.570;2023-04-07T04:41:48;1.48;;;0.60;;
37831;SDS011;23671;38.090;-122.570;2023-04-07T04:44:15;0.43;;;0.43;;
37831;SDS011;23671;38.090;-122.570;2023-04-07T04:46:42;0.93;;;0.68;;
37831;SDS011;23671;38.090;-122.570;2023-04-07T04:49:09;2.53;;;0.80;;
37831;SDS011;23671;38.090;-122.570;2023-04-07T04:51:36;2.28;;;0.80;;
37831;SDS011;23671;38.090;-122.570;2023-04-07T04:54:03;1.63;;;0.68;;
37831;SDS011;23671;38.090;-122.570;2023-04-07T04:56:31;1.88;;;0.80;;
37831;SDS011;23671;38.090;-122.570;2023-04-07T04:58:58;2.05;;;0.80;;
37831;SDS011;23671;38.090;-122.570;2023-04-07T05:01:25;1.05;;;0.60;;
37831;SDS011;23671;38.090;-122.570;2023-04-07T05:03:52;1.35;;;0.60;;
37831;SDS011;23671;38.090;-122.570;2023-04-07T05:06:19;2.03;;;0.95;;
37831;SDS011;23671;38.090;-122.570;2023-04-07T05:08:46;1.17;;;0.60;;
37831;SDS011;23671;38.090;-122.570;2023-04-07T05:11:13;1.98;;;0.60;;
37831;SDS011;23671;38.090;-122.570;2023-04-07T05:13:41;1.77;;;0.68;;
37831;SDS011;23671;38.090;-122.570;2023-04-07T05:16:08;0.63;;;0.50;;
37831;SDS011;23671;38.090;-122.570;2023-04-07T05:18:35;1.00;;;0.60;;
37831;SDS011;23671;38.090;-122.570;2023-04-07T05:21:02;2.15;;;0.65;;
37831;SDS011;23671;38.090;-122.570;2023-04-07T05:23:29;0.82;;;0.43;;
37831;SDS011;23671;38.090;-122.570;2023-04-07T05:25:56;1.73;;;0.75;;
37831;SDS011;23671;38.090;-122.570;2023-04-07T05:28:23;1.05;;;0.50;;
37831;SDS011;23671;38.090;-122.570;2023-04-07T05:30:50;2.75;;;0.73;;
37831;SDS011;23671;38.090;-122.570;2023-04-07T05:33:17;3.55;;;0.70;;
37831;SDS011;23671;38.090;-122.570;2023-04-07T05:35:44;1.38;;;0.40;;
37831;SDS011;23671;38.090;-122.570;2023-04-07T05:38:12;1.50;;;0.70;;
37831;SDS011;23671;38.090;-122.570;2023-04-07T05:40:41;2.65;;;0.70;;
37831;SDS011;23671;38.090;-122.570;2023-04-07T05:43:08;1.25;;;0.52;;
37831;SDS011;23671;38.090;-122.570;2023-04-07T05:45:35;1.60;;;0.55;;
37831;SDS011;23671;38.090;-122.570;2023-04-07T05:48:02;0.90;;;0.63;;
37831;SDS011;23671;38.090;-122.570;2023-04-07T05:50:29;2.50;;;0.85;;
37831;SDS011;23671;38.090;-122.570;2023-04-07T05:52:56;2.08;;;0.80;;
37831;SDS011;23671;38.090;-122.570;2023-04-07T05:55:23;0.90;;;0.50;;
37831;SDS011;23671;38.090;-122.570;2023-04-07T05:57:50;1.23;;;0.70;;
37831;SDS011;23671;38.090;-122.570;2023-04-07T06:00:17;1.02;;;0.43;;
37831;SDS011;23671;38.090;-122.570;2023-04-07T06:02:44;4.50;;;0.90;;
37831;SDS011;23671;38.090;-122.570;2023-04-07T06:05:11;4.28;;;0.80;;
37831;SDS011;23671;38.090;-122.570;2023-04-07T06:07:38;1.65;;;0.50;;
37831;SDS011;23671;38.090;-122.570;2023-04-07T06:10:05;0.85;;;0.60;;
37831;SDS011;23671;38.090;-122.570;2023-04-07T06:12:33;1.00;;;0.82;;
37831;SDS011;23671;38.090;-122.570;2023-04-07T06:15:00;1.52;;;0.60;;
37831;SDS011;23671;38.090;-122.570;2023-04-07T06:17:27;0.75;;;0.60;;
37831;SDS011;23671;38.090;-122.570;2023-04-07T06:19:54;1.27;;;0.52;;
37831;SDS011;23671;38.090;-122.570;2023-04-07T06:22:21;1.17;;;0.82;;
37831;SDS011;23671;38.090;-122.570;2023-04-07T06:24:49;2.10;;;0.73;;
37831;SDS011;23671;38.090;-122.570;2023-04-07T06:27:16;3.85;;;0.70;;
37831;SDS011;23671;38.090;-122.570;2023-04-07T06:29:43;2.25;;;0.60;;
37831;SDS011;23671;38.090;-122.570;2023-04-07T06:32:10;0.38;;;0.38;;
37831;SDS011;23671;38.090;-122.570;2023-04-07T06:34:38;1.20;;;0.60;;
37831;SDS011;23671;38.090;-122.570;2023-04-07T06:37:05;1.40;;;0.40;;
37831;SDS011;23671;38.090;-122.570;2023-04-07T06:39:32;0.90;;;0.50;;
37831;SDS011;23671;38.090;-122.570;2023-04-07T06:41:59;1.27;;;0.57;;
37831;SDS011;23671;38.090;-122.570;2023-04-07T06:44:29;1.10;;;0.60;;
37831;SDS011;23671;38.090;-122.570;2023-04-07T06:46:56;1.95;;;0.73;;
37831;SDS011;23671;38.090;-122.570;2023-04-07T06:49:23;2.50;;;0.90;;
37831;SDS011;23671;38.090;-122.570;2023-04-07T06:51:50;2.80;;;0.57;;
37831;SDS011;23671;38.090;-122.570;2023-04-07T06:54:17;2.65;;;0.70;;
37831;SDS011;23671;38.090;-122.570;2023-04-07T06:56:44;2.03;;;0.60;;
37831;SDS011;23671;38.090;-122.570;2023-04-07T06:59:11;1.55;;;0.73;;
37831;SDS011;23671;38.090;-122.570;2023-04-07T07:01:38;1.67;;;1.15;;
37831;SDS011;23671;38.090;-122.570;2023-04-07T07:04:06;2.97;;;0.60;;
37831;SDS011;23671;38.090;-122.570;2023-04-07T07:06:33;2.05;;;0.75;;
37831;SDS011;23671;38.090;-122.570;2023-04-07T07:09:00;2.70;;;0.70;;
37831;SDS011;23671;38.090;-122.570;2023-04-07T07:11:27;0.65;;;0.40;;
37831;SDS011;23671;38.090;-122.570;2023-04-07T07:13:55;0.82;;;0.50;;
37831;SDS011;23671;38.090;-122.570;2023-04-07T07:16:22;1.65;;;0.40;;
37831;SDS011;23671;38.090;-122.570;2023-04-07T07:18:49;1.15;;;0.60;;
37831;SDS011;23671;38.090;-122.570;2023-04-07T07:21:16;1.30;;;0.70;;
37831;SDS011;23671;38.090;-122.570;2023-04-07T07:23:44;1.35;;;0.50;;
37831;SDS011;23671;38.090;-122.570;2023-04-07T07:26:11;2.65;;;0.70;;
37831;SDS011;23671;38.090;-122.570;2023-04-07T07:28:38;1.02;;;0.60;;
37831;SDS011;23671;38.090;-122.570;2023-04-07T07:31:09;2.33;;;0.70;;
37831;SDS011;23671;38.090;-122.570;2023-04-07T07:33:40;4.05;;;0.70;;
37831;SDS011;23671;38.090;-122.570;2023-04-07T07:36:10;3.33;;;1.00;;
37831;SDS011;23671;38.090;-122.570;2023-04-07T07:38:37;4.30;;;0.65;;
37831;SDS011;23671;38.090;-122.570;2023-04-07T07:41:07;1.02;;;0.50;;
37831;SDS011;23671;38.090;-122.570;2023-04-07T07:43:35;1.40;;;0.50;;
37831;SDS011;23671;38.090;-122.570;2023-04-07T07:46:02;1.35;;;0.50;;
37831;SDS011;23671;38.090;-122.570;2023-04-07T07:48:29;0.73;;;0.50;;
37831;SDS011;23671;38.090;-122.570;2023-04-07T07:50:56;2.65;;;0.70;;
37831;SDS011;23671;38.090;-122.570;2023-04-07T07:53:23;2.33;;;0.55;;
37831;SDS011;23671;38.090;-122.570;2023-04-07T07:55:50;1.17;;;0.50;;
37831;SDS011;23671;38.090;-122.570;2023-04-07T08:00:46;1.13;;;0.47;;
37831;SDS011;23671;38.090;-122.570;2023-04-07T08:03:14;2.05;;;0.70;;
37831;SDS011;23671;38.090;-122.570;2023-04-07T08:05:44;0.65;;;0.50;;
37831;SDS011;23671;38.090;-122.570;2023-04-07T08:08:13;2.67;;;0.75;;
37831;SDS011;23671;38.090;-122.570;2023-04-07T08:10:40;1.67;;;0.50;;
37831;SDS011;23671;38.090;-122.570;2023-04-07T08:13:08;0.47;;;0.47;;
37831;SDS011;23671;38.090;-122.570;2023-04-07T08:15:35;0.98;;;0.55;;
37831;SDS011;23671;38.090;-122.570;2023-04-07T08:18:02;1.63;;;0.40;;
37831;SDS011;23671;38.090;-122.570;2023-04-07T08:20:30;1.27;;;0.60;;
37831;SDS011;23671;38.090;-122.570;2023-04-07T08:22:58;1.98;;;0.50;;
37831;SDS011;23671;38.090;-122.570;2023-04-07T08:25:29;2.60;;;0.70;;
37831;SDS011;23671;38.090;-122.570;2023-04-07T08:27:56;2.05;;;0.80;;
37831;SDS011;23671;38.090;-122.570;2023-04-07T08:30:23;1.10;;;0.60;;
37831;SDS011;23671;38.090;-122.570;2023-04-07T08:32:50;2.80;;;0.80;;
37831;SDS011;23671;38.090;-122.570;2023-04-07T08:35:17;2.72;;;0.70;;
37831;SDS011;23671;38.090;-122.570;2023-04-07T08:37:44;0.40;;;0.40;;
37831;SDS011;23671;38.090;-122.570;2023-04-07T08:40:11;1.35;;;0.47;;
37831;SDS011;23671;38.090;-122.570;2023-04-07T08:42:40;1.88;;;0.77;;
37831;SDS011;23671;38.090;-122.570;2023-04-07T08:45:09;0.65;;;0.43;;
37831;SDS011;23671;38.090;-122.570;2023-04-07T08:47:37;0.50;;;0.50;;
37831;SDS011;23671;38.090;-122.570;2023-04-07T08:50:09;0.40;;;0.40;;
37831;SDS011;23671;38.090;-122.570;2023-04-07T08:55:11;1.15;;;0.57;;
37831;SDS011;23671;38.090;-122.570;2023-04-07T08:57:39;0.80;;;0.70;;
37831;SDS011;23671;38.090;-122.570;2023-04-07T09:00:08;0.93;;;0.50;;
37831;SDS011;23671;38.090;-122.570;2023-04-07T09:02:37;0.70;;;0.50;;
37831;SDS011;23671;38.090;-122.570;2023-04-07T09:05:06;0.40;;;0.40;;
37831;SDS011;23671;38.090;-122.570;2023-04-07T09:07:35;1.50;;;0.50;;
37831;SDS011;23671;38.090;-122.570;2023-04-07T09:10:12;1.63;;;0.70;;
37831;SDS011;23671;38.090;-122.570;2023-04-07T09:12:40;2.35;;;0.55;;
37831;SDS011;23671;38.090;-122.570;2023-04-07T09:15:07;1.05;;;0.60;;
37831;SDS011;23671;38.090;-122.570;2023-04-07T09:17:34;1.63;;;0.40;;
37831;SDS011;23671;38.090;-122.570;2023-04-07T09:20:01;0.85;;;0.50;;
37831;SDS011;23671;38.090;-122.570;2023-04-07T09:22:33;1.15;;;0.55;;
37831;SDS011;23671;38.090;-122.570;2023-04-07T09:25:16;1.05;;;0.40;;
37831;SDS011;23671;38.090;-122.570;2023-04-07T09:30:28;1.10;;;0.57;;
37831;SDS011;23671;38.090;-122.570;2023-04-07T09:32:59;0.77;;;0.45;;
37831;SDS011;23671;38.090;-122.570;2023-04-07T09:35:26;1.15;;;0.55;;
37831;SDS011;23671;38.090;-122.570;2023-04-07T09:38:04;1.80;;;0.70;;
37831;SDS011;23671;38.090;-122.570;2023-04-07T09:40:33;1.08;;;0.40;;
37831;SDS011;23671;38.090;-122.570;2023-04-07T09:43:01;1.75;;;0.73;;
37831;SDS011;23671;38.090;-122.570;2023-04-07T09:45:30;2.33;;;0.65;;
37831;SDS011;23671;38.090;-122.570;2023-04-07T09:47:59;1.55;;;0.57;;
37831;SDS011;23671;38.090;-122.570;2023-04-07T09:50:33;2.50;;;0.60;;
37831;SDS011;23671;38.090;-122.570;2023-04-07T09:53:01;1.38;;;0.90;;
37831;SDS011;23671;38.090;-122.570;2023-04-07T09:55:29;1.90;;;0.80;;
37831;SDS011;23671;38.090;-122.570;2023-04-07T09:57:56;1.70;;;0.82;;
37831;SDS011;23671;38.090;-122.570;2023-04-07T10:00:23;2.63;;;0.65;;
37831;SDS011;23671;38.090;-122.570;2023-04-07T10:02:51;0.88;;;0.40;;
37831;SDS011;23671;38.090;-122.570;2023-04-07T10:05:18;2.08;;;0.52;;
37831;SDS011;23671;38.090;-122.570;2023-04-07T10:07:46;2.40;;;0.65;;
37831;SDS011;23671;38.090;-122.570;2023-04-07T10:10:14;2.33;;;0.63;;
37831;SDS011;23671;38.090;-122.570;2023-04-07T10:12:41;0.57;;;0.47;;
37831;SDS011;23671;38.090;-122.570;2023-04-07T10:15:12;0.90;;;0.35;;
37831;SDS011;23671;38.090;-122.570;2023-04-07T10:17:45;1.67;;;0.88;;
37831;SDS011;23671;38.090;-122.570;2023-04-07T10:20:14;0.88;;;0.45;;
37831;SDS011;23671;38.090;-122.570;2023-04-07T10:22:45;1.98;;;0.40;;
37831;SDS011;23671;38.090;-122.570;2023-04-07T10:25:16;2.80;;;0.50;;
37831;SDS011;23671;38.090;-122.570;2023-04-07T10:27:51;2.28;;;0.28;;
37831;SDS011;23671;38.090;-122.570;2023-04-07T10:30:30;1.65;;;0.60;;
37831;SDS011;23671;38.090;-122.570;2023-04-07T10:32:58;0.50;;;0.30;;
37831;SDS011;23671;38.090;-122.570;2023-04-07T10:35:25;2.88;;;0.60;;
37831;SDS011;23671;38.090;-122.570;2023-04-07T10:38:14;0.70;;;0.40;;
37831;SDS011;23671;38.090;-122.570;2023-04-07T10:40:41;1.52;;;0.43;;
37831;SDS011;23671;38.090;-122.570;2023-04-07T10:43:08;0.90;;;0.45;;
37831;SDS011;23671;38.090;-122.570;2023-04-07T10:48:23;2.10;;;0.50;;
37831;SDS011;23671;38.090;-122.570;2023-04-07T10:53:28;1.17;;;0.60;;
37831;SDS011;23671;38.090;-122.570;2023-04-07T10:55:58;1.48;;;0.55;;
37831;SDS011;23671;38.090;-122.570;2023-04-07T11:03:56;0.70;;;0.30;;
37831;SDS011;23671;38.090;-122.570;2023-04-07T11:06:25;1.88;;;0.50;;
37831;SDS011;23671;38.090;-122.570;2023-04-07T11:08:52;0.65;;;0.40;;
37831;SDS011;23671;38.090;-122.570;2023-04-07T11:11:33;0.55;;;0.30;;
37831;SDS011;23671;38.090;-122.570;2023-04-07T11:14:03;0.63;;;0.40;;
37831;SDS011;23671;38.090;-122.570;2023-04-07T11:16:37;0.85;;;0.40;;
37831;SDS011;23671;38.090;-122.570;2023-04-07T11:19:06;1.75;;;0.50;;
37831;SDS011;23671;38.090;-122.570;2023-04-07T11:21:33;0.40;;;0.30;;
37831;SDS011;23671;38.090;-122.570;2023-04-07T11:24:01;0.57;;;0.40;;
37831;SDS011;23671;38.090;-122.570;2023-04-07T11:26:28;0.80;;;0.30;;
37831;SDS011;23671;38.090;-122.570;2023-04-07T11:29:01;2.53;;;0.40;;
37831;SDS011;23671;38.090;-122.570;2023-04-07T11:31:28;2.17;;;0.43;;
37831;SDS011;23671;38.090;-122.570;2023-04-07T11:33:57;1.00;;;0.40;;
37831;SDS011;23671;38.090;-122.570;2023-04-07T11:36:26;0.75;;;0.38;;
37831;SDS011;23671;38.090;-122.570;2023-04-07T11:39:02;1.52;;;0.43;;
37831;SDS011;23671;38.090;-122.570;2023-04-07T11:41:31;0.88;;;0.20;;
37831;SDS011;23671;38.090;-122.570;2023-04-07T11:44:05;1.10;;;0.43;;
37831;SDS011;23671;38.090;-122.570;2023-04-07T11:46:34;0.50;;;0.50;;
37831;SDS011;23671;38.090;-122.570;2023-04-07T11:49:08;2.35;;;0.45;;
37831;SDS011;23671;38.090;-122.570;2023-04-07T11:51:36;0.63;;;0.50;;
37831;SDS011;23671;38.090;-122.570;2023-04-07T11:54:03;0.93;;;0.30;;
37831;SDS011;23671;38.090;-122.570;2023-04-07T11:56:40;0.38;;;0.15;;
37831;SDS011;23671;38.090;-122.570;2023-04-07T11:59:21;0.65;;;0.40;;
37831;SDS011;23671;38.090;-122.570;2023-04-07T12:01:50;0.88;;;0.20;;
37831;SDS011;23671;38.090;-122.570;2023-04-07T12:04:17;1.30;;;0.30;;
37831;SDS011;23671;38.090;-122.570;2023-04-07T12:06:45;0.50;;;0.40;;
37831;SDS011;23671;38.090;-122.570;2023-04-07T12:11:56;0.55;;;0.32;;
37831;SDS011;23671;38.090;-122.570;2023-04-07T12:14:24;0.77;;;0.20;;
37831;SDS011;23671;38.090;-122.570;2023-04-07T12:16:54;0.82;;;0.40;;
37831;SDS011;23671;38.090;-122.570;2023-04-07T12:19:26;0.45;;;0.40;;
37831;SDS011;23671;38.090;-122.570;2023-04-07T12:21:54;1.08;;;0.40;;
37831;SDS011;23671;38.090;-122.570;2023-04-07T12:24:21;0.40;;;0.40;;
37831;SDS011;23671;38.090;-122.570;2023-04-07T12:26:48;1.88;;;0.60;;
37831;SDS011;23671;38.090;-122.570;2023-04-07T12:29:16;0.20;;;0.20;;
37831;SDS011;23671;38.090;-122.570;2023-04-07T12:31:44;0.80;;;0.50;;
37831;SDS011;23671;38.090;-122.570;2023-04-07T12:34:11;0.32;;;0.25;;
37831;SDS011;23671;38.090;-122.570;2023-04-07T12:36:38;0.60;;;0.30;;
37831;SDS011;23671;38.090;-122.570;2023-04-07T12:39:05;0.55;;;0.55;;
37831;SDS011;23671;38.090;-122.570;2023-04-07T12:41:32;0.35;;;0.30;;
37831;SDS011;23671;38.090;-122.570;2023-04-07T12:43:59;0.77;;;0.40;;
37831;SDS011;23671;38.090;-122.570;2023-04-07T12:46:26;0.30;;;0.30;;
37831;SDS011;23671;38.090;-122.570;2023-04-07T12:48:53;1.17;;;0.50;;
37831;SDS011;23671;38.090;-122.570;2023-04-07T12:51:20;0.30;;;0.30;;
37831;SDS011;23671;38.090;-122.570;2023-04-07T12:53:47;0.93;;;0.30;;
37831;SDS011;23671;38.090;-122.570;2023-04-07T12:56:14;0.38;;;0.38;;
37831;SDS011;23671;38.090;-122.570;2023-04-07T12:58:41;1.30;;;0.20;;
37831;SDS011;23671;38.090;-122.570;2023-04-07T13:01:08;0.80;;;0.35;;
37831;SDS011;23671;38.090;-122.570;2023-04-07T13:03:36;1.65;;;0.45;;
37831;SDS011;23671;38.090;-122.570;2023-04-07T13:06:03;1.00;;;0.40;;
37831;SDS011;23671;38.090;-122.570;2023-04-07T13:08:30;0.43;;;0.20;;
37831;SDS011;23671;38.090;-122.570;2023-04-07T13:10:57;1.20;;;0.40;;
37831;SDS011;23671;38.090;-122.570;2023-04-07T13:13:24;0.43;;;0.25;;
37831;SDS011;23671;38.090;-122.570;2023-04-07T13:15:51;1.17;;;0.47;;
37831;SDS011;23671;38.090;-122.570;2023-04-07T13:18:18;0.30;;;0.30;;
37831;SDS011;23671;38.090;-122.570;2023-04-07T13:20:46;0.28;;;0.20;;
37831;SDS011;23671;38.090;-122.570;2023-04-07T13:23:13;0.30;;;0.28;;
37831;SDS011;23671;38.090;-122.570;2023-04-07T13:25:40;0.20;;;0.20;;
37831;SDS011;23671;38.090;-122.570;2023-04-07T13:28:07;0.90;;;0.30;;
37831;SDS011;23671;38.090;-122.570;2023-04-07T13:30:34;0.28;;;0.28;;
37831;SDS011;23671;38.090;-122.570;2023-04-07T13:33:01;0.30;;;0.30;;
37831;SDS011;23671;38.090;-122.570;2023-04-07T13:35:28;0.40;;;0.38;;
37831;SDS011;23671;38.090;-122.570;2023-04-07T13:38:00;0.40;;;0.30;;
37831;SDS011;23671;38.090;-122.570;2023-04-07T13:40:28;0.43;;;0.20;;
37831;SDS011;23671;38.090;-122.570;2023-04-07T13:42:55;0.28;;;0.28;;
37831;SDS011;23671;38.090;-122.570;2023-04-07T13:45:23;0.55;;;0.20;;
37831;SDS011;23671;38.090;-122.570;2023-04-07T13:47:50;0.15;;;0.13;;
37831;SDS011;23671;38.090;-122.570;2023-04-07T13:50:17;0.32;;;0.20;;
37831;SDS011;23671;38.090;-122.570;2023-04-07T13:52:44;2.00;;;0.30;;
37831;SDS011;23671;38.090;-122.570;2023-04-07T13:55:11;0.30;;;0.20;;
37831;SDS011;23671;38.090;-122.570;2023-04-07T13:57:40;0.08;;;0.05;;
37831;SDS011;23671;38.090;-122.570;2023-04-07T14:00:07;0.32;;;0.20;;
37831;SDS011;23671;38.090;-122.570;2023-04-07T14:02:34;1.35;;;0.20;;
37831;SDS011;23671;38.090;-122.570;2023-04-07T14:05:01;1.48;;;0.20;;
37831;SDS011;23671;38.090;-122.570;2023-04-07T14:07:28;0.65;;;0.32;;
37831;SDS011;23671;38.090;-122.570;2023-04-07T14:09:55;0.20;;;0.20;;
37831;SDS011;23671;38.090;-122.570;2023-04-07T14:12:22;0.70;;;0.20;;
37831;SDS011;23671;38.090;-122.570;2023-04-07T14:14:49;0.43;;;0.10;;
37831;SDS011;23671;38.090;-122.570;2023-04-07T14:17:19;0.17;;;0.15;;
37831;SDS011;23671;38.090;-122.570;2023-04-07T14:19:46;0.10;;;0.10;;
37831;SDS011;23671;38.090;-122.570;2023-04-07T14:22:13;0.45;;;0.10;;
37831;SDS011;23671;38.090;-122.570;2023-04-07T14:24:40;0.10;;;0.10;;
37831;SDS011;23671;38.090;-122.570;2023-04-07T14:27:07;0.20;;;0.20;;
37831;SDS011;23671;38.090;-122.570;2023-04-07T14:29:34;0.20;;;0.10;;
37831;SDS011;23671;38.090;-122.570;2023-04-07T14:32:02;0.52;;;0.20;;
37831;SDS011;23671;38.090;-122.570;2023-04-07T14:34:29;0.17;;;0.13;;
37831;SDS011;23671;38.090;-122.570;2023-04-07T14:36:57;0.80;;;0.30;;
37831;SDS011;23671;38.090;-122.570;2023-04-07T14:39:24;0.30;;;0.10;;
37831;SDS011;23671;38.090;-122.570;2023-04-07T14:41:51;0.55;;;0.10;;
37831;SDS011;23671;38.090;-122.570;2023-04-07T14:44:19;1.15;;;0.30;;
37831;SDS011;23671;38.090;-122.570;2023-04-07T14:46:46;0.17;;;0.10;;
37831;SDS011;23671;38.090;-122.570;2023-04-07T14:49:13;0.10;;;0.10;;
37831;SDS011;23671;38.090;-122.570;2023-04-07T14:51:40;0.38;;;0.25;;